Time;durP1;ratioP1;P1;durP2;ratioP2;P2;SDS_P1;SDS_P2;PMS_P1;PMS_P2;Temp;Humidity;BMP_temperature;BMP_pressure;BME280_temperature;BME280_humidity;BME280_pressure;Samples;Min_cycle;Max_cycle;Signal;HPM_P1;HPM_P2
2021/10/17 00:02:23;;;;;;;0.37;0.20;;;8.90;99.90;;;;;;5065800;28;20176;-82
2021/10/17 00:04:49;;;;;;;0.30;0.20;;;8.90;99.90;;;;;;5063799;28;20620;-81
2021/10/17 00:07:15;;;;;;;0.40;0.40;;;8.90;99.90;;;;;;5064629;28;20685;-82
2021/10/17 00:09:41;;;;;;;0.30;0.30;;;9.00;99.90;;;;;;5065219;28;20175;-81
2021/10/17 00:12:09;;;;;;;0.20;0.20;;;9.10;99.90;;;;;;5064927;28;20238;-81
2021/10/17 00:14:35;;;;;;;0.20;0.20;;;9.20;99.90;;;;;;5060997;28;20177;-81
2021/10/17 00:17:01;;;;;;;0.10;0.10;;;9.30;99.90;;;;;;5061938;28;20209;-81
2021/10/17 00:19:26;;;;;;;0.10;0.10;;;9.30;99.90;;;;;;5061143;28;20655;-82
2021/10/17 00:21:52;;;;;;;0.10;0.10;;;9.40;99.90;;;;;;5057049;28;20196;-82
2021/10/17 00:24:18;;;;;;;3.10;0.37;;;9.40;99.90;;;;;;5054255;28;20184;-82
2021/10/17 00:26:43;;;;;;;0.60;0.30;;;9.40;99.90;;;;;;5063013;28;20215;-82
2021/10/17 00:29:09;;;;;;;0.40;0.23;;;9.40;99.90;;;;;;5069185;28;20203;-82
2021/10/17 00:31:34;;;;;;;0.30;0.30;;;9.50;99.90;;;;;;5071376;28;20202;-82
2021/10/17 00:34:00;;;;;;;0.30;0.30;;;9.50;99.90;;;;;;5061573;28;20181;-82
2021/10/17 00:36:27;;;;;;;0.40;0.30;;;9.50;99.90;;;;;;5070088;28;20328;-82
2021/10/17 00:38:52;;;;;;;0.97;0.47;;;9.50;99.90;;;;;;5064703;28;20263;-82
2021/10/17 00:41:18;;;;;;;3.10;0.30;;;9.50;99.90;;;;;;5065795;28;20217;-81
2021/10/17 00:43:44;;;;;;;0.30;0.30;;;9.40;99.90;;;;;;5061949;28;20180;-82
2021/10/17 00:46:21;;;;;;;0.50;0.50;;;9.50;99.90;;;;;;5067058;28;20206;-81
2021/10/17 00:48:47;;;;;;;0.10;0.10;;;9.60;99.90;;;;;;5065166;28;20272;-82
2021/10/17 00:51:14;;;;;;;0.40;0.40;;;9.70;99.90;;;;;;5068309;28;20234;-82
2021/10/17 00:53:40;;;;;;;0.60;0.60;;;9.70;99.90;;;;;;5063176;28;20202;-82
2021/10/17 00:56:06;;;;;;;0.10;0.10;;;9.80;99.90;;;;;;5055022;28;20239;-82
2021/10/17 00:58:32;;;;;;;0.40;0.40;;;9.80;99.90;;;;;;5058545;28;20189;-82
2021/10/17 01:00:57;;;;;;;0.37;0.37;;;9.80;99.90;;;;;;5066597;28;20179;-82
2021/10/17 01:03:23;;;;;;;0.27;0.27;;;9.70;99.90;;;;;;5060852;28;20212;-82
2021/10/17 01:05:50;;;;;;;0.20;0.20;;;9.70;99.90;;;;;;5069276;28;20238;-81
2021/10/17 01:08:16;;;;;;;0.83;0.50;;;9.80;99.90;;;;;;5064239;28;20181;-82
2021/10/17 01:10:43;;;;;;;0.17;0.17;;;9.70;99.90;;;;;;5059201;28;20228;-82
2021/10/17 01:13:16;;;;;;;0.17;0.17;;;9.50;99.90;;;;;;5055269;28;20181;-81
2021/10/17 01:15:42;;;;;;;0.37;0.37;;;9.40;99.90;;;;;;5068341;28;20186;-82
2021/10/17 01:18:07;;;;;;;0.23;0.23;;;9.30;99.90;;;;;;5062615;28;20175;-82
2021/10/17 01:20:33;;;;;;;0.23;0.23;;;9.30;99.90;;;;;;5069046;28;20190;-82
2021/10/17 01:22:59;;;;;;;0.40;0.40;;;9.20;99.90;;;;;;5066210;28;20559;-82
2021/10/17 01:25:25;;;;;;;0.27;0.27;;;9.10;99.90;;;;;;5065577;28;20291;-81
2021/10/17 01:27:50;;;;;;;0.20;0.20;;;9.10;99.90;;;;;;5061590;28;20614;-82
2021/10/17 01:30:17;;;;;;;0.60;0.60;;;9.00;99.90;;;;;;5066680;28;20221;-82
2021/10/17 01:32:43;;;;;;;0.53;0.53;;;9.20;99.90;;;;;;5051500;28;20189;-83
2021/10/17 01:35:10;;;;;;;0.30;0.30;;;9.40;99.90;;;;;;5052907;28;20181;-82
2021/10/17 01:37:35;;;;;;;0.20;0.20;;;9.50;99.90;;;;;;5056990;28;20201;-82
2021/10/17 01:40:02;;;;;;;0.40;0.40;;;9.70;99.90;;;;;;5069984;28;20202;-82
2021/10/17 01:42:27;;;;;;;1.23;0.60;;;9.80;99.90;;;;;;5057482;28;20215;-81
2021/10/17 01:44:53;;;;;;;0.50;0.50;;;9.90;99.90;;;;;;5060007;28;20183;-82
2021/10/17 01:47:19;;;;;;;0.40;0.40;;;10.00;99.90;;;;;;5053831;28;20705;-82
2021/10/17 01:49:44;;;;;;;0.43;0.30;;;9.90;99.90;;;;;;5069744;28;20266;-82
2021/10/17 01:52:10;;;;;;;0.17;0.17;;;9.80;99.90;;;;;;5065078;28;20196;-82
2021/10/17 01:54:35;;;;;;;0.80;0.30;;;9.50;99.90;;;;;;5051540;28;20218;-82
2021/10/17 01:57:01;;;;;;;0.20;0.20;;;9.40;99.90;;;;;;5055107;28;20334;-82
2021/10/17 01:59:27;;;;;;;0.10;0.10;;;9.20;99.90;;;;;;5051728;28;20686;-82
2021/10/17 02:01:52;;;;;;;0.10;0.10;;;9.20;99.90;;;;;;5057012;28;20190;-82
2021/10/17 02:04:18;;;;;;;0.30;0.30;;;9.30;99.90;;;;;;5063413;28;20192;-82
2021/10/17 02:06:43;;;;;;;0.47;0.20;;;9.50;99.90;;;;;;5071979;28;20217;-82
2021/10/17 02:09:09;;;;;;;0.20;0.20;;;9.60;99.90;;;;;;5050926;28;20181;-82
2021/10/17 02:11:35;;;;;;;0.10;0.10;;;9.80;99.90;;;;;;5066975;28;20208;-82
2021/10/17 02:14:00;;;;;;;0.50;0.50;;;9.70;99.90;;;;;;5066022;28;20174;-82
2021/10/17 02:16:26;;;;;;;0.10;0.10;;;9.70;99.90;;;;;;5064578;28;20203;-82
2021/10/17 02:18:52;;;;;;;0.50;0.50;;;9.50;99.90;;;;;;5068855;28;20179;-82
2021/10/17 02:21:17;;;;;;;0.20;0.20;;;9.50;99.90;;;;;;5055314;28;20180;-82
2021/10/17 02:23:43;;;;;;;0.20;0.20;;;9.50;99.90;;;;;;5061398;28;20178;-81
2021/10/17 02:26:08;;;;;;;0.37;0.37;;;9.70;99.90;;;;;;5056674;28;20197;-81
2021/10/17 02:28:34;;;;;;;0.27;0.27;;;9.80;99.90;;;;;;5069073;28;20696;-82
2021/10/17 02:31:00;;;;;;;0.17;0.17;;;9.80;99.90;;;;;;5051964;28;20567;-82
2021/10/17 02:33:26;;;;;;;0.33;0.20;;;9.90;99.90;;;;;;5055126;28;20189;-81
2021/10/17 02:35:51;;;;;;;0.20;0.20;;;9.90;99.90;;;;;;5059911;28;20209;-81
2021/10/17 02:38:17;;;;;;;0.30;0.30;;;9.90;99.90;;;;;;5054093;28;20177;-82
2021/10/17 02:40:43;;;;;;;0.10;0.10;;;9.90;99.90;;;;;;5059179;28;20687;-81
2021/10/17 02:43:08;;;;;;;0.10;0.10;;;9.70;99.90;;;;;;5063540;28;20234;-82
2021/10/17 02:45:35;;;;;;;0.10;0.10;;;9.70;99.90;;;;;;5068188;28;20240;-82
2021/10/17 02:48:01;;;;;;;0.30;0.30;;;9.60;99.90;;;;;;5059655;28;20185;-82
2021/10/17 02:50:26;;;;;;;0.17;0.13;;;9.60;99.90;;;;;;5062735;28;20296;-81
2021/10/17 02:52:52;;;;;;;0.13;0.13;;;9.50;99.90;;;;;;5056917;28;20940;-82
2021/10/17 02:55:17;;;;;;;0.10;0.10;;;9.50;99.90;;;;;;5050250;28;20176;-81
2021/10/17 02:57:43;;;;;;;0.10;0.10;;;9.40;99.90;;;;;;5069358;28;20197;-82
2021/10/17 03:00:09;;;;;;;1.73;0.47;;;9.30;99.90;;;;;;5062185;28;20184;-82
2021/10/17 03:02:34;;;;;;;0.20;0.20;;;9.20;99.90;;;;;;5066509;28;20178;-82
2021/10/17 03:05:01;;;;;;;6.07;0.23;;;9.00;99.90;;;;;;5063582;28;20173;-82
2021/10/17 03:07:27;;;;;;;0.10;0.10;;;9.10;99.90;;;;;;5059222;28;20693;-82
2021/10/17 03:09:53;;;;;;;0.23;0.20;;;9.00;99.90;;;;;;5063751;28;20195;-81
2021/10/17 03:12:18;;;;;;;0.30;0.30;;;9.00;99.90;;;;;;5065719;28;20202;-82
2021/10/17 03:14:44;;;;;;;0.10;0.10;;;9.00;99.90;;;;;;5061011;28;20231;-81
2021/10/17 03:17:09;;;;;;;0.30;0.30;;;9.00;99.90;;;;;;5064304;28;20197;-82
2021/10/17 03:19:35;;;;;;;0.30;0.30;;;9.00;99.90;;;;;;5065039;28;20267;-82
2021/10/17 03:22:01;;;;;;;0.23;0.20;;;8.90;99.90;;;;;;5064117;28;20301;-81
2021/10/17 03:24:26;;;;;;;0.67;0.60;;;8.90;99.90;;;;;;5063342;28;20184;-81
2021/10/17 03:26:52;;;;;;;0.37;0.37;;;8.90;99.90;;;;;;5063108;28;20199;-81
2021/10/17 03:29:17;;;;;;;0.20;0.20;;;8.90;99.90;;;;;;5058083;28;20559;-81
2021/10/17 03:31:43;;;;;;;0.63;0.27;;;8.90;99.90;;;;;;5063776;28;20206;-81
2021/10/17 03:34:09;;;;;;;0.23;0.23;;;8.90;99.90;;;;;;5052552;28;20254;-82
2021/10/17 03:36:34;;;;;;;0.57;0.57;;;9.00;99.90;;;;;;5060005;28;20210;-81
2021/10/17 03:39:00;;;;;;;0.20;0.20;;;9.00;99.90;;;;;;5064486;28;20178;-82
2021/10/17 03:41:26;;;;;;;0.10;0.10;;;9.00;99.90;;;;;;5064741;28;20672;-82
2021/10/17 03:43:52;;;;;;;1.07;0.60;;;9.00;99.90;;;;;;5063937;28;20193;-82
2021/10/17 03:46:19;;;;;;;0.20;0.20;;;9.10;99.90;;;;;;5068841;28;20198;-82
2021/10/17 03:48:45;;;;;;;0.40;0.40;;;9.10;99.90;;;;;;5055226;28;20561;-82
2021/10/17 03:51:11;;;;;;;0.10;0.10;;;9.10;99.90;;;;;;5059251;28;20194;-82
2021/10/17 03:53:37;;;;;;;0.30;0.20;;;9.20;99.90;;;;;;5055256;28;20259;-81
2021/10/17 03:56:03;;;;;;;0.10;0.10;;;9.20;99.90;;;;;;5054199;28;20203;-82
2021/10/17 03:58:29;;;;;;;0.10;0.10;;;9.20;99.90;;;;;;5059387;28;20263;-82
2021/10/17 04:00:54;;;;;;;0.20;0.20;;;9.30;99.90;;;;;;5066613;28;20612;-81
2021/10/17 04:03:20;;;;;;;0.23;0.23;;;9.30;99.90;;;;;;5066428;28;20184;-81
2021/10/17 04:05:45;;;;;;;0.20;0.20;;;9.30;99.90;;;;;;5071927;28;20181;-81
2021/10/17 04:08:11;;;;;;;0.30;0.30;;;9.40;99.90;;;;;;5057068;28;20179;-81
2021/10/17 04:10:36;;;;;;;0.10;0.10;;;9.40;99.90;;;;;;5060280;28;20236;-81
2021/10/17 04:13:03;;;;;;;0.03;0.03;;;9.40;99.90;;;;;;5068288;28;20174;-81
2021/10/17 04:15:35;;;;;;;0.20;0.20;;;9.40;99.90;;;;;;5069185;28;20236;-81
2021/10/17 04:18:01;;;;;;;1.30;0.30;;;9.40;99.90;;;;;;5066635;28;20594;-82
2021/10/17 04:20:26;;;;;;;0.33;0.30;;;9.40;99.90;;;;;;5046716;28;20222;-81
2021/10/17 04:22:52;;;;;;;0.47;0.30;;;9.40;99.90;;;;;;5066233;28;20639;-81
2021/10/17 04:25:17;;;;;;;0.20;0.20;;;9.30;99.90;;;;;;5071164;28;20188;-81
2021/10/17 04:27:43;;;;;;;0.10;0.10;;;9.30;99.90;;;;;;5064474;28;20615;-81
2021/10/17 04:30:09;;;;;;;0.47;0.43;;;9.30;99.90;;;;;;5061934;28;20196;-81
2021/10/17 04:32:34;;;;;;;0.23;0.23;;;9.40;99.90;;;;;;5051831;28;20641;-81
2021/10/17 04:35:00;;;;;;;0.97;0.73;;;9.40;99.90;;;;;;5057401;28;20177;-81
2021/10/17 04:37:29;;;;;;;0.20;0.20;;;9.40;99.90;;;;;;5057882;28;20208;-81
2021/10/17 04:39:55;;;;;;;0.70;0.70;;;9.40;99.90;;;;;;5055971;28;20175;-81
2021/10/17 04:42:20;;;;;;;0.27;0.27;;;9.40;99.90;;;;;;5058391;28;20249;-81
2021/10/17 04:44:46;;;;;;;0.30;0.30;;;9.40;99.90;;;;;;5067809;28;20196;-81
2021/10/17 04:47:11;;;;;;;0.13;0.13;;;9.40;99.90;;;;;;5055784;28;20204;-81
2021/10/17 04:49:37;;;;;;;0.10;0.10;;;9.50;99.90;;;;;;5053995;28;20192;-81
2021/10/17 04:52:02;;;;;;;0.40;0.40;;;9.50;99.90;;;;;;5067992;28;20675;-81
2021/10/17 04:54:28;;;;;;;0.20;0.20;;;9.50;99.90;;;;;;5060993;28;20563;-81
2021/10/17 04:56:54;;;;;;;0.20;0.20;;;9.50;99.90;;;;;;5054362;28;20403;-82
2021/10/17 04:59:21;;;;;;;0.10;0.10;;;9.50;99.90;;;;;;5061429;28;20321;-82
2021/10/17 05:01:48;;;;;;;0.30;0.30;;;9.50;99.90;;;;;;5052241;28;20208;-83
2021/10/17 05:04:14;;;;;;;0.10;0.10;;;9.40;99.90;;;;;;5050204;28;20192;-82
2021/10/17 05:06:40;;;;;;;0.53;0.53;;;9.40;99.90;;;;;;5063392;28;20211;-82
2021/10/17 05:09:06;;;;;;;0.30;0.30;;;9.50;99.90;;;;;;5050992;28;20192;-82
2021/10/17 05:11:31;;;;;;;0.20;0.20;;;9.50;99.90;;;;;;5064834;28;20287;-82
2021/10/17 05:13:57;;;;;;;0.10;0.10;;;9.50;99.90;;;;;;5066036;28;20233;-82
2021/10/17 05:16:22;;;;;;;0.10;0.10;;;9.40;99.90;;;;;;5059375;28;20276;-81
2021/10/17 05:18:48;;;;;;;0.10;0.10;;;9.30;99.90;;;;;;5098108;28;20202;-81
2021/10/17 05:21:13;;;;;;;0.20;0.20;;;9.30;99.90;;;;;;5064018;28;20189;-80
2021/10/17 05:23:39;;;;;;;0.40;0.40;;;9.20;99.90;;;;;;5055622;28;20200;-81
2021/10/17 05:26:05;;;;;;;1.83;0.80;;;9.20;99.90;;;;;;5075395;28;20561;-81
2021/10/17 05:28:31;;;;;;;0.27;0.27;;;9.20;99.90;;;;;;5060916;28;20220;-81
2021/10/17 05:31:00;;;;;;;0.10;0.10;;;9.30;99.90;;;;;;5070233;28;20288;-81
2021/10/17 05:33:27;;;;;;;0.13;0.13;;;9.30;99.90;;;;;;5060251;28;20188;-81
2021/10/17 05:35:52;;;;;;;0.40;0.37;;;9.30;99.90;;;;;;5064981;28;20560;-81
2021/10/17 05:38:18;;;;;;;0.40;0.40;;;9.30;99.90;;;;;;5059163;28;20220;-81
2021/10/17 05:40:44;;;;;;;0.30;0.30;;;9.40;99.90;;;;;;5051093;28;20617;-80
2021/10/17 05:43:09;;;;;;;0.10;0.10;;;9.40;99.90;;;;;;5065922;28;20635;-81
2021/10/17 05:45:35;;;;;;;0.20;0.20;;;9.40;99.90;;;;;;5059210;28;20207;-81
2021/10/17 05:48:00;;;;;;;0.10;0.10;;;9.40;99.90;;;;;;5065015;28;20193;-80
2021/10/17 05:50:26;;;;;;;0.20;0.20;;;9.40;99.90;;;;;;5050659;28;20217;-80
2021/10/17 05:52:52;;;;;;;0.10;0.10;;;9.50;99.90;;;;;;5070402;28;20193;-81
2021/10/17 05:55:17;;;;;;;0.77;0.77;;;9.50;99.90;;;;;;5069196;28;20180;-83
2021/10/17 05:57:43;;;;;;;0.10;0.10;;;9.50;99.90;;;;;;5060210;28;20673;-84
2021/10/17 06:00:09;;;;;;;0.93;0.50;;;9.50;99.90;;;;;;5062082;28;20175;-83
2021/10/17 06:02:34;;;;;;;0.17;0.17;;;9.50;99.90;;;;;;5055322;28;20661;-84
2021/10/17 06:05:00;;;;;;;0.73;0.70;;;9.50;99.90;;;;;;5063449;28;20181;-83
2021/10/17 06:07:25;;;;;;;0.40;0.40;;;9.40;99.90;;;;;;5070641;28;20246;-83
2021/10/17 06:09:51;;;;;;;0.30;0.30;;;9.50;99.90;;;;;;5080073;28;20179;-81
2021/10/17 06:12:17;;;;;;;0.77;0.37;;;9.40;99.90;;;;;;5064376;28;20199;-82
2021/10/17 06:14:43;;;;;;;0.20;0.20;;;9.40;99.90;;;;;;5048185;28;20661;-83
2021/10/17 06:17:08;;;;;;;0.20;0.20;;;9.40;99.90;;;;;;5069543;28;20206;-82
2021/10/17 06:19:34;;;;;;;0.40;0.40;;;9.40;99.90;;;;;;5057225;28;20184;-81
2021/10/17 06:22:03;;;;;;;0.20;0.20;;;9.40;99.90;;;;;;5073683;28;20195;-82
2021/10/17 06:24:30;;;;;;;0.20;0.20;;;9.30;99.90;;;;;;5063922;28;20196;-82
2021/10/17 06:26:56;;;;;;;0.20;0.20;;;9.30;99.90;;;;;;5058215;28;20207;-82
2021/10/17 06:29:22;;;;;;;0.23;0.23;;;9.40;99.90;;;;;;5067219;28;20198;-82
2021/10/17 06:31:47;;;;;;;0.30;0.30;;;9.50;99.90;;;;;;5063385;28;20195;-82
2021/10/17 06:34:13;;;;;;;0.10;0.10;;;9.50;99.90;;;;;;5059862;28;20245;-82
2021/10/17 06:36:39;;;;;;;0.30;0.30;;;9.70;99.90;;;;;;5053551;28;20202;-82
2021/10/17 06:39:05;;;;;;;0.73;0.67;;;9.70;99.90;;;;;;5044871;28;20217;-83
2021/10/17 06:41:30;;;;;;;0.40;0.40;;;9.70;99.90;;;;;;5058384;28;20189;-82
2021/10/17 06:43:56;;;;;;;0.20;0.20;;;9.60;99.90;;;;;;5061744;28;20275;-82
2021/10/17 06:46:22;;;;;;;0.20;0.20;;;9.60;99.90;;;;;;5089269;28;20217;-82
2021/10/17 06:48:48;;;;;;;0.50;0.50;;;9.60;99.90;;;;;;5054792;28;20196;-82
2021/10/17 06:51:13;;;;;;;0.83;0.40;;;9.70;99.90;;;;;;5051205;28;20210;-82
2021/10/17 06:53:39;;;;;;;0.43;0.43;;;9.70;99.90;;;;;;5056639;28;20187;-82
2021/10/17 06:56:06;;;;;;;1.30;0.43;;;9.80;99.90;;;;;;5052576;28;20210;-83
2021/10/17 06:58:32;;;;;;;0.40;0.40;;;9.80;99.90;;;;;;5052353;28;20774;-82
2021/10/17 07:00:58;;;;;;;0.23;0.23;;;9.70;99.90;;;;;;5058024;28;20188;-81
2021/10/17 07:03:23;;;;;;;0.40;0.30;;;9.70;99.90;;;;;;5054058;28;20699;-82
2021/10/17 07:05:49;;;;;;;0.20;0.20;;;9.80;99.90;;;;;;5060424;28;20181;-82
2021/10/17 07:08:15;;;;;;;0.70;0.70;;;9.80;99.90;;;;;;5052589;28;20676;-82
2021/10/17 07:10:41;;;;;;;0.37;0.30;;;9.80;99.90;;;;;;5061557;28;20695;-83
2021/10/17 07:13:06;;;;;;;0.20;0.20;;;9.80;99.90;;;;;;5063122;28;20192;-83
2021/10/17 07:15:32;;;;;;;0.40;0.40;;;9.70;99.90;;;;;;5045633;28;20189;-82
2021/10/17 07:17:57;;;;;;;0.90;0.70;;;9.80;99.90;;;;;;5057970;28;20223;-82
2021/10/17 07:20:23;;;;;;;0.37;0.37;;;9.60;99.90;;;;;;5066010;28;20563;-82
2021/10/17 07:22:49;;;;;;;0.50;0.50;;;9.70;99.90;;;;;;5058897;28;20181;-83
2021/10/17 07:25:16;;;;;;;0.20;0.20;;;9.70;99.90;;;;;;5060649;28;20563;-83
2021/10/17 07:27:45;;;;;;;0.20;0.20;;;9.80;99.90;;;;;;5057656;28;20197;-82
2021/10/17 07:30:11;;;;;;;0.30;0.30;;;9.90;99.90;;;;;;5046054;28;20192;-82
2021/10/17 07:32:36;;;;;;;0.70;0.43;;;10.10;99.90;;;;;;5053970;28;20206;-80
2021/10/17 07:35:02;;;;;;;0.43;0.40;;;10.20;99.90;;;;;;5045359;28;20824;-82
2021/10/17 07:37:28;;;;;;;0.13;0.13;;;10.20;99.90;;;;;;5061787;28;20211;-82
2021/10/17 07:39:53;;;;;;;0.10;0.10;;;10.30;99.90;;;;;;5064936;28;20276;-82
2021/10/17 07:42:19;;;;;;;0.30;0.20;;;10.40;99.90;;;;;;5051965;28;20183;-84
2021/10/17 07:44:44;;;;;;;0.10;0.10;;;10.40;99.90;;;;;;5058318;28;20216;-82
2021/10/17 07:47:10;;;;;;;0.10;0.10;;;10.40;99.90;;;;;;5058870;28;20247;-83
2021/10/17 07:49:36;;;;;;;0.20;0.20;;;10.20;99.90;;;;;;5058133;28;20723;-82
2021/10/17 07:52:01;;;;;;;0.47;0.47;;;10.20;99.90;;;;;;5060641;28;20216;-83
2021/10/17 07:54:27;;;;;;;0.57;0.57;;;9.80;99.90;;;;;;5045257;28;20607;-82
2021/10/17 07:56:53;;;;;;;1.00;1.00;;;9.70;99.90;;;;;;5048967;28;20207;-83
2021/10/17 07:59:18;;;;;;;0.20;0.20;;;9.90;99.90;;;;;;5063772;28;20188;-83
2021/10/17 08:01:44;;;;;;;0.43;0.43;;;10.10;99.90;;;;;;5051972;28;20273;-82
2021/10/17 08:04:10;;;;;;;0.27;0.20;;;10.00;99.90;;;;;;5061476;28;20564;-83
2021/10/17 08:06:35;;;;;;;0.40;0.40;;;9.90;99.90;;;;;;5053393;28;20212;-83
2021/10/17 08:09:01;;;;;;;0.30;0.30;;;10.00;99.90;;;;;;5062512;28;20180;-82
2021/10/17 08:11:26;;;;;;;0.10;0.10;;;10.10;99.90;;;;;;5060334;28;20683;-82
2021/10/17 08:13:52;;;;;;;0.83;0.63;;;10.40;99.90;;;;;;5066155;28;20586;-83
2021/10/17 08:16:18;;;;;;;0.50;0.50;;;10.60;99.90;;;;;;5066637;28;20190;-83
2021/10/17 08:18:43;;;;;;;0.30;0.30;;;10.70;99.90;;;;;;5050740;28;20176;-82
2021/10/17 08:21:09;;;;;;;0.60;0.40;;;11.00;99.90;;;;;;5069285;28;20186;-82
2021/10/17 08:23:35;;;;;;;0.97;0.63;;;10.80;99.90;;;;;;5069032;28;20185;-82
2021/10/17 08:26:00;;;;;;;0.30;0.30;;;10.70;99.90;;;;;;5063000;28;20211;-83
2021/10/17 08:28:28;;;;;;;0.30;0.30;;;10.90;99.90;;;;;;5061105;28;20199;-82
2021/10/17 08:30:54;;;;;;;0.20;0.20;;;11.20;99.90;;;;;;5066797;28;20696;-82
2021/10/17 08:33:20;;;;;;;0.63;0.63;;;11.50;99.90;;;;;;5059269;28;20540;-82
2021/10/17 08:35:46;;;;;;;0.33;0.33;;;11.60;99.90;;;;;;5063802;28;20178;-82
2021/10/17 08:38:11;;;;;;;6.07;0.37;;;11.60;99.90;;;;;;5059004;28;20243;-82
2021/10/17 08:40:39;;;;;;;0.20;0.20;;;10.90;99.90;;;;;;5049008;28;20750;-82
2021/10/17 08:43:05;;;;;;;0.10;0.10;;;10.80;99.90;;;;;;5063820;28;20596;-82
2021/10/17 08:45:30;;;;;;;0.33;0.33;;;11.20;99.90;;;;;;5059310;28;20196;-81
2021/10/17 08:47:57;;;;;;;0.30;0.30;;;11.70;99.90;;;;;;5069564;28;20583;-81
2021/10/17 08:50:24;;;;;;;0.23;0.23;;;11.90;99.90;;;;;;5069209;28;20201;-81
2021/10/17 08:52:50;;;;;;;0.10;0.10;;;12.10;99.90;;;;;;5065268;28;20185;-81
2021/10/17 08:55:15;;;;;;;0.43;0.43;;;12.50;99.90;;;;;;5056374;28;20186;-82
2021/10/17 08:57:41;;;;;;;0.50;0.30;;;12.90;99.90;;;;;;5057384;28;20694;-81
2021/10/17 09:00:31;;;;;;;0.30;0.30;;;13.00;99.90;;;;;;5060192;28;20178;-81
2021/10/17 09:02:57;;;;;;;0.63;0.43;;;12.70;99.90;;;;;;5088000;28;20556;-81
2021/10/17 09:05:32;;;;;;;0.20;0.20;;;12.40;99.90;;;;;;5064524;28;20193;-82
2021/10/17 09:07:58;;;;;;;0.73;0.70;;;12.40;99.90;;;;;;5043090;28;20201;-82
2021/10/17 09:10:24;;;;;;;0.20;0.20;;;12.80;99.90;;;;;;5092613;28;20185;-81
2021/10/17 09:12:49;;;;;;;0.20;0.20;;;13.00;99.90;;;;;;5058827;28;20273;-82
2021/10/17 09:15:29;;;;;;;0.17;0.17;;;13.10;99.90;;;;;;5051403;28;20189;-81
2021/10/17 09:18:11;;;;;;;5.33;0.33;;;13.30;99.90;;;;;;5059024;28;20199;-82
2021/10/17 09:20:58;;;;;;;0.30;0.30;;;13.30;99.90;;;;;;5070620;28;20185;-81
2021/10/17 09:23:27;;;;;;;0.30;0.30;;;13.20;99.90;;;;;;5044728;28;20232;-81
2021/10/17 09:25:54;;;;;;;1.53;0.47;;;13.50;99.90;;;;;;5066414;28;20212;-81
2021/10/17 09:28:27;;;;;;;0.47;0.37;;;13.70;99.90;;;;;;5063849;28;20217;-82
2021/10/17 09:31:09;;;;;;;0.30;0.30;;;13.30;99.90;;;;;;5068766;28;20296;-81
2021/10/17 09:33:44;;;;;;;0.20;0.20;;;13.90;99.90;;;;;;5058142;28;20182;-81
2021/10/17 09:36:23;;;;;;;0.50;0.50;;;14.40;99.90;;;;;;5069051;28;20283;-82
2021/10/17 09:38:53;;;;;;;0.37;0.30;;;14.60;99.90;;;;;;5062587;28;20650;-83
2021/10/17 09:41:22;;;;;;;0.00;0.00;;;14.80;99.90;;;;;;5061274;28;20181;-81
2021/10/17 09:43:58;;;;;;;0.30;0.30;;;15.00;99.90;;;;;;5088383;28;20651;-81
2021/10/17 09:46:24;;;;;;;0.10;0.10;;;14.90;99.90;;;;;;5058320;28;20218;-81
2021/10/17 09:48:50;;;;;;;0.60;0.60;;;14.60;99.90;;;;;;5056146;28;20677;-81
2021/10/17 09:51:17;;;;;;;0.20;0.20;;;14.40;99.90;;;;;;5061451;28;20202;-82
2021/10/17 09:53:51;;;;;;;0.40;0.30;;;13.90;99.90;;;;;;5065783;28;20188;-82
2021/10/17 09:56:39;;;;;;;0.40;0.40;;;14.20;99.90;;;;;;5063930;28;20200;-81
2021/10/17 09:59:06;;;;;;;0.20;0.20;;;14.70;99.90;;;;;;5060063;28;20295;-82
2021/10/17 10:01:33;;;;;;;0.20;0.20;;;15.10;99.90;;;;;;5066337;28;20531;-82
2021/10/17 10:04:01;;;;;;;0.30;0.30;;;15.30;99.90;;;;;;5063697;28;20233;-82
2021/10/17 10:06:27;;;;;;;0.30;0.20;;;15.40;99.90;;;;;;5086746;28;20241;-82
2021/10/17 10:09:02;;;;;;;0.20;0.20;;;15.60;99.90;;;;;;5068527;28;20197;-82
2021/10/17 10:11:30;;;;;;;0.40;0.40;;;16.10;99.90;;;;;;5069493;28;20217;-82
2021/10/17 10:13:59;;;;;;;0.40;0.40;;;16.30;99.90;;;;;;5057815;28;20204;-82
2021/10/17 10:16:26;;;;;;;0.40;0.40;;;16.40;99.90;;;;;;5067597;28;20234;-81
2021/10/17 10:19:09;;;;;;;0.20;0.20;;;16.50;99.90;;;;;;5070585;28;20697;-82
2021/10/17 10:21:36;;;;;;;0.43;0.43;;;16.30;99.90;;;;;;5064549;28;20188;-82
2021/10/17 10:24:06;;;;;;;0.23;0.23;;;16.30;99.90;;;;;;5075344;28;20196;-82
2021/10/17 10:26:33;;;;;;;0.60;0.43;;;16.50;99.90;;;;;;5072210;28;20311;-83
2021/10/17 10:28:59;;;;;;;0.30;0.30;;;16.60;99.90;;;;;;5059876;28;20621;-82
2021/10/17 10:31:40;;;;;;;0.17;0.17;;;15.50;99.90;;;;;;5074574;28;20207;-82
2021/10/17 10:34:06;;;;;;;0.30;0.30;;;15.90;99.90;;;;;;5057210;28;20195;-82
2021/10/17 10:36:43;;;;;;;0.20;0.13;;;16.30;99.90;;;;;;5073406;28;20199;-82
2021/10/17 10:39:13;;;;;;;0.30;0.30;;;16.50;99.90;;;;;;5052595;28;20192;-82
2021/10/17 10:41:52;;;;;;;0.47;0.47;;;16.20;99.90;;;;;;5063953;28;20189;-82
2021/10/17 10:44:35;;;;;;;0.23;0.23;;;15.00;99.90;;;;;;5063847;28;20243;-82
2021/10/17 10:47:27;;;;;;;0.20;0.20;;;14.90;99.90;;;;;;5065154;28;20314;-82
2021/10/17 10:49:54;;;;;;;0.23;0.23;;;15.10;99.90;;;;;;5055230;28;20192;-82
2021/10/17 10:52:28;;;;;;;0.33;0.33;;;15.50;99.90;;;;;;5058142;28;20211;-81
2021/10/17 10:54:56;;;;;;;0.13;0.13;;;16.10;99.90;;;;;;5049094;28;20182;-82
2021/10/17 10:57:24;;;;;;;0.10;0.10;;;16.60;99.90;;;;;;5060924;28;20205;-81
2021/10/17 11:00:11;;;;;;;2.80;0.40;;;16.20;99.90;;;;;;5061151;28;20200;-82
2021/10/17 11:02:38;;;;;;;0.10;0.10;;;15.70;99.90;;;;;;5046942;28;20191;-82
2021/10/17 11:05:04;;;;;;;0.40;0.40;;;15.80;99.90;;;;;;5052724;28;20190;-82
2021/10/17 11:07:40;;;;;;;0.33;0.33;;;14.70;99.90;;;;;;5065301;28;20248;-81
2021/10/17 11:10:27;;;;;;;0.10;0.10;;;15.10;99.90;;;;;;5062937;28;20211;-82
2021/10/17 11:12:57;;;;;;;1.33;0.97;;;14.70;99.90;;;;;;5065747;28;20645;-82
2021/10/17 11:15:25;;;;;;;0.10;0.10;;;14.50;99.90;;;;;;5061546;28;20276;-82
2021/10/17 11:17:52;;;;;;;0.30;0.30;;;14.50;99.90;;;;;;5062937;28;20199;-82
2021/10/17 11:20:20;;;;;;;0.50;0.50;;;14.30;99.90;;;;;;5061178;28;20186;-82
2021/10/17 11:22:47;;;;;;;0.30;0.30;;;14.80;99.90;;;;;;5067435;28;20178;-81
2021/10/17 11:25:17;;;;;;;0.30;0.30;;;14.60;99.90;;;;;;5064479;28;20180;-81
2021/10/17 11:27:44;;;;;;;0.57;0.57;;;14.90;99.90;;;;;;5066404;28;20578;-82
2021/10/17 11:30:35;;;;;;;0.30;0.30;;;15.40;99.90;;;;;;5066861;28;20262;-82
2021/10/17 11:33:17;;;;;;;0.20;0.20;;;15.70;99.90;;;;;;5044903;28;20175;-82
2021/10/17 11:36:03;;;;;;;0.30;0.20;;;15.90;99.90;;;;;;5052030;28;20272;-82
2021/10/17 11:38:29;;;;;;;0.30;0.30;;;16.30;99.90;;;;;;5062071;28;20176;-82
2021/10/17 11:41:07;;;;;;;0.17;0.17;;;16.20;99.90;;;;;;5060430;28;20186;-82
2021/10/17 11:43:34;;;;;;;0.37;0.37;;;16.30;99.90;;;;;;5057980;28;20180;-82
2021/10/17 11:46:05;;;;;;;0.40;0.40;;;16.70;99.90;;;;;;5050406;28;20226;-82
2021/10/17 11:48:33;;;;;;;0.30;0.30;;;16.10;99.90;;;;;;5053962;28;20192;-84
2021/10/17 11:51:06;;;;;;;0.30;0.30;;;16.50;99.90;;;;;;5052388;28;20199;-82
2021/10/17 11:53:33;;;;;;;0.33;0.33;;;16.30;99.90;;;;;;5046235;28;20191;-82
2021/10/17 11:55:58;;;;;;;0.20;0.20;;;16.30;99.90;;;;;;5055832;28;20291;-82
2021/10/17 11:58:26;;;;;;;1.07;1.07;;;15.80;99.90;;;;;;5056299;28;20303;-82
2021/10/17 12:00:54;;;;;;;0.20;0.20;;;16.20;99.90;;;;;;5054201;28;20197;-82
2021/10/17 12:03:22;;;;;;;0.20;0.20;;;16.30;99.90;;;;;;5065498;28;20556;-82
2021/10/17 12:05:50;;;;;;;0.43;0.43;;;15.90;99.90;;;;;;5059234;28;20253;-82
2021/10/17 12:08:26;;;;;;;0.20;0.20;;;16.10;99.90;;;;;;5063734;28;20658;-82
2021/10/17 12:10:59;;;;;;;0.23;0.23;;;16.00;99.90;;;;;;5046196;28;20214;-82
2021/10/17 12:13:26;;;;;;;0.10;0.10;;;15.40;99.90;;;;;;5055715;28;20180;-82
2021/10/17 12:16:06;;;;;;;6.13;0.40;;;15.10;99.90;;;;;;5057706;28;20583;-82
2021/10/17 12:18:31;;;;;;;0.80;0.37;;;15.60;99.90;;;;;;5064967;28;20670;-82
2021/10/17 12:20:58;;;;;;;0.20;0.20;;;15.80;99.90;;;;;;5064978;28;20180;-82
2021/10/17 12:23:24;;;;;;;0.63;0.50;;;15.90;99.90;;;;;;5069083;28;20183;-82
2021/10/17 12:25:49;;;;;;;0.17;0.17;;;15.80;99.90;;;;;;5054939;28;20193;-82
2021/10/17 12:28:19;;;;;;;0.43;0.43;;;15.90;99.90;;;;;;5062210;28;20191;-82
2021/10/17 12:30:53;;;;;;;0.20;0.20;;;15.50;99.90;;;;;;5053230;28;20211;-81
2021/10/17 12:33:28;;;;;;;1.37;0.40;;;15.10;99.90;;;;;;5054104;28;20218;-82
2021/10/17 12:35:54;;;;;;;0.23;0.23;;;15.10;99.90;;;;;;5059885;28;20207;-82
2021/10/17 12:38:20;;;;;;;0.10;0.10;;;15.00;99.90;;;;;;5060702;28;20193;-83
2021/10/17 12:41:00;;;;;;;0.13;0.13;;;15.50;99.90;;;;;;5063735;28;20188;-83
2021/10/17 12:43:36;;;;;;;0.30;0.30;;;15.60;99.90;;;;;;5060158;28;20690;-83
2021/10/17 12:46:13;;;;;;;0.20;0.20;;;14.90;99.90;;;;;;5062014;28;20205;-83
2021/10/17 12:48:44;;;;;;;0.10;0.10;;;14.70;99.90;;;;;;5060890;28;20265;-83
2021/10/17 12:51:43;;;;;;;0.33;0.30;;;14.90;99.90;;;;;;5071723;28;20587;-82
2021/10/17 12:54:28;;;;;;;0.40;0.40;;;15.30;99.90;;;;;;5066986;28;20179;-83
2021/10/17 12:56:55;;;;;;;0.20;0.20;;;15.30;99.90;;;;;;5065885;28;20217;-83